Oklahoma — C6VR8 — position and weather

sailwx.info

Track history (hours):
 
Tides and Currents Weather Stations Pressure Air Temp Water Temp Dewpoint Dewpoint Depression Visibility Wind Speed Wind Dir Waves Ship Positions

Oklahoma

Last reported at 2017-Nov-19 04:12 UTC. Time now 2017-Nov-22 13:13 UTC.
Position N 44°23' W 125°11'.

Length 238 m; draft 12.1 m.

Type: Tanker. MMSI: 308664000.

Date/timePositionNaut miles runAvg speedWind from/ knotsBaromVisibWave heightAir tempDewpointWater temp
2017-Nov-19 04:12N 44°23' W 125°11'313.2
2017-Nov-19 03:59N 44°26' W 125°12'813.3
2017-Nov-19 03:24N 44°34' W 125°12'613.2
2017-Nov-19 02:58N 44°40' W 125°12'613.5
2017-Nov-19 02:30N 44°46' W 125°12'713.3
2017-Nov-19 02:01N 44°53' W 125°12'713.3
2017-Nov-19 01:30N 44°59' W 125°13'713.0
2017-Nov-19 01:00N 45°06' W 125°13'713.1
2017-Nov-19 00:28N 45°13' W 125°13'613.3
2017-Nov-19 00:00N 45°19' W 125°14'713.4
2017-Nov-18 23:30N 45°26' W 125°14'713.3
2017-Nov-18 23:00N 45°32' W 125°14'713.5
2017-Nov-18 22:30N 45°39' W 125°14'713.6
2017-Nov-18 22:00N 45°46' W 125°14'713.5
2017-Nov-18 21:30N 45°53' W 125°15'713.4
2017-Nov-18 21:00N 45°59' W 125°15'713.1
2017-Nov-18 20:31N 46°06' W 125°15'713.0
2017-Nov-18 20:00N 46°12' W 125°16'613.1
2017-Nov-18 19:30N 46°19' W 125°16'612.9
2017-Nov-18 19:01N 46°25' W 125°17'613.0
2017-Nov-18 18:31N 46°32' W 125°17'613.0
2017-Nov-18 18:01N 46°38' W 125°17'612.8
2017-Nov-18 17:31N 46°45' W 125°17'612.9
2017-Nov-18 17:00N 46°51' W 125°18'1013.1
2017-Nov-18 16:16N 47°01' W 125°18'7112.9
2017-Nov-18 10:45N 48°12' W 125°13'312.5
2017-Nov-18 10:29N 48°15' W 125°12'612.1
2017-Nov-18 09:57N 48°22' W 125°09'511.5
2017-Nov-18 09:30N 48°26' W 125°06'611.6
2017-Nov-18 09:00N 48°31' W 125°00'611.6
2017-Nov-18 08:31N 48°31' W 124°52'612.0
2017-Nov-18 08:00N 48°30' W 124°43'612.2
2017-Nov-18 07:30N 48°28' W 124°34'712.6
2017-Nov-18 06:57N 48°25' W 124°24'613.9
2017-Nov-18 06:30N 48°23' W 124°16'714.6
2017-Nov-18 06:01N 48°20' W 124°06'714.0
2017-Nov-18 05:30N 48°18' W 123°56'714.0
2017-Nov-18 05:00N 48°16' W 123°46'814.9
2017-Nov-18 04:30N 48°15' W 123°35'612.2
2017-Nov-18 04:00N 48°19' W 123°28'5 9.6
2017-Nov-18 03:30N 48°23' W 123°23'510.6
2017-Nov-18 03:00N 48°23' W 123°15'510.5
2017-Nov-18 02:30N 48°28' W 123°12'612.2
2017-Nov-18 02:00N 48°34' W 123°13'611.7
2017-Nov-18 01:30N 48°40' W 123°15'4 8.4
2017-Nov-18 01:00N 48°43' W 123°11'510.8
2017-Nov-18 00:30N 48°46' W 123°04'4 7.9
2017-Nov-17 23:59N 48°50' W 123°03'511.4
2017-Nov-17 23:30N 48°54' W 123°08'611.5
2017-Nov-17 23:00N 48°58' W 123°15'611.7
2017-Nov-17 22:30N 49°02' W 123°21'510.4
2017-Nov-17 22:00N 49°07' W 123°24'611.8
2017-Nov-17 21:30N 49°12' W 123°22'510.3
2017-Nov-17 21:00N 49°17' W 123°20'510.9
2017-Nov-17 20:30N 49°19' W 123°12'3 5.5
2017-Nov-17 20:00N 49°19' W 123°08'3 6.2
2017-Nov-17 19:30N 49°18' W 123°04'3 6.1
2017-Nov-17 19:00N 49°18' W 122°59'1 1.8
2017-Nov-17 18:30N 49°18' W 122°57'0 0.9
2017-Nov-17 17:59N 49°18' W 122°57'0 0.0
2017-Nov-16 02:03N 49°17' W 122°57'0 0.0
2017-Nov-16 01:51N 49°17' W 122°57'0 0.0
2017-Nov-16 01:21N 49°17' W 122°57'0 0.0
2017-Nov-16 00:57N 49°17' W 122°57'0 0.0
2017-Nov-16 00:27N 49°17' W 122°57'0 0.0
2017-Nov-15 23:57N 49°17' W 122°57'0 0.0
2017-Nov-15 23:09N 49°17' W 122°57'0 0.0
2017-Nov-15 22:51N 49°17' W 122°57'0 0.0
2017-Nov-15 22:27N 49°17' W 122°57'0 0.0
2017-Nov-15 21:57N 49°17' W 122°57'0 0.0
2017-Nov-15 21:21N 49°17' W 122°57'0 0.0
2017-Nov-15 20:45N 49°17' W 122°57'0 0.0
2017-Nov-15 20:27N 49°17' W 122°57'0 0.0
2017-Nov-15 19:21N 49°17' W 122°57'0 0.0
2017-Nov-15 16:21N 49°17' W 122°57'0 0.2
2017-Nov-15 16:00N 49°18' W 122°57'1 1.6
2017-Nov-15 15:30N 49°18' W 122°58'0 0.2
2017-Nov-15 15:00N 49°18' W 122°58'0 0.1
2017-Nov-15 14:19N 49°18' W 122°58'0 0.1
2017-Nov-15 14:01N 49°18' W 122°58'0 0.0
2017-Nov-15 13:13N 49°18' W 122°58'0 0.1
2017-Nov-15 12:43N 49°18' W 122°58'0 0.0
2017-Nov-15 11:43N 49°18' W 122°58'0 0.0
2017-Nov-15 11:25N 49°18' W 122°58'0 0.3
2017-Nov-15 10:49N 49°18' W 122°58'0 0.3
2017-Nov-15 10:19N 49°18' W 122°58'0 0.2
2017-Nov-15 09:58N 49°18' W 122°58'0 0.1
2017-Nov-15 09:13N 49°18' W 122°58'0 0.2
2017-Nov-15 08:55N 49°18' W 122°58'0 0.4
2017-Nov-15 08:28N 49°18' W 122°58'0 0.1
2017-Nov-15 07:31N 49°18' W 122°58'0 0.0
2017-Nov-15 07:19N 49°18' W 122°58'0 0.1
2017-Nov-15 06:55N 49°18' W 122°58'0 0.1
2017-Nov-15 06:16N 49°18' W 122°58'0 0.0
2017-Nov-15 06:01N 49°18' W 122°58'0 0.0
2017-Nov-15 05:07N 49°18' W 122°58'0 0.0
2017-Nov-15 04:49N 49°18' W 122°58'0 0.0
2017-Nov-15 04:25N 49°18' W 122°58'0 0.0
2017-Nov-15 03:43N 49°18' W 122°58'0 0.1
2017-Nov-15 03:25N 49°18' W 122°58'0 0.0
2017-Nov-15 02:55N 49°18' W 122°58'0 0.0
2017-Nov-15 02:25N 49°18' W 122°58'0 0.0
2017-Nov-15 01:55N 49°18' W 122°58'0 0.0
2017-Nov-15 01:19N 49°18' W 122°58'0 0.1
2017-Nov-15 00:55N 49°18' W 122°58'0 0.0
2017-Nov-15 00:25N 49°18' W 122°58'0 0.0
2017-Nov-15 00:01N 49°18' W 122°58'0 0.0
2017-Nov-14 23:25N 49°18' W 122°58'0 0.0
2017-Nov-14 22:55N 49°18' W 122°58'0 0.0
2017-Nov-14 22:19N 49°18' W 122°58'0 0.1
2017-Nov-14 21:43N 49°18' W 122°58'0 0.2
2017-Nov-14 21:28N 49°18' W 122°58'0 0.2
2017-Nov-14 20:25N 49°18' W 122°58'0 0.1
2017-Nov-14 19:55N 49°18' W 122°58'0 0.2
2017-Nov-14 19:31N 49°18' W 122°58'0 0.1
2017-Nov-14 18:19N 49°18' W 122°58'0 0.0
2017-Nov-14 18:01N 49°18' W 122°58'0 0.1
2017-Nov-14 17:25N 49°18' W 122°58'0 0.1
2017-Nov-14 16:58N 49°18' W 122°58'0 0.0
2017-Nov-14 16:25N 49°18' W 122°58'0 0.0
2017-Nov-14 15:49N 49°18' W 122°58'0 0.1
2017-Nov-14 15:28N 49°18' W 122°58'0 0.0
2017-Nov-14 14:55N 49°18' W 122°58'0 0.0
2017-Nov-14 14:28N 49°18' W 122°58'0 0.0
2017-Nov-14 13:58N 49°18' W 122°58'0 0.0
2017-Nov-14 13:28N 49°18' W 122°58'0 0.0
2017-Nov-14 12:55N 49°18' W 122°58'0 0.0
2017-Nov-14 12:25N 49°18' W 122°58'0 0.1
2017-Nov-14 11:37N 49°18' W 122°58'0 0.0
2017-Nov-14 11:31N 49°18' W 122°58'0 0.0
2017-Nov-14 10:58N 49°18' W 122°58'0 0.1
2017-Nov-14 10:13N 49°18' W 122°58'0 0.1
2017-Nov-14 09:55N 49°18' W 122°58'0 0.2
2017-Nov-14 09:25N 49°18' W 122°58'0 0.2
2017-Nov-14 09:01N 49°18' W 122°58'0 0.1
2017-Nov-14 08:31N 49°18' W 122°58'0 0.2
2017-Nov-14 07:55N 49°18' W 122°58'0 0.2
2017-Nov-14 07:25N 49°18' W 122°58'0 0.1
2017-Nov-14 06:52N 49°18' W 122°58'0 0.1
2017-Nov-14 06:31N 49°18' W 122°58'0 0.1
2017-Nov-14 05:49N 49°18' W 122°58'0 0.0
2017-Nov-14 05:25N 49°18' W 122°58'0 0.0
2017-Nov-14 04:58N 49°18' W 122°58'0 0.0
2017-Nov-14 04:25N 49°18' W 122°58'0 0.0
2017-Nov-14 03:55N 49°18' W 122°58'0 0.0
2017-Nov-14 03:25N 49°18' W 122°58'0 0.0
2017-Nov-14 02:55N 49°18' W 122°58'0 0.0
2017-Nov-14 02:13N 49°18' W 122°58'0 0.0
2017-Nov-14 01:55N 49°18' W 122°58'0 0.0
2017-Nov-14 01:28N 49°18' W 122°58'0 0.0
2017-Nov-14 00:55N 49°18' W 122°58'0 0.0
2017-Nov-14 00:22N 49°18' W 122°58'0 0.1
2017-Nov-13 23:58N 49°18' W 122°58'0 0.0
2017-Nov-13 23:25N 49°18' W 122°58'0 0.0
2017-Nov-13 22:58N 49°18' W 122°58'0 0.0
2017-Nov-13 22:19N 49°18' W 122°58'0 0.0
2017-Nov-13 21:55N 49°18' W 122°58'0 0.0
2017-Nov-13 01:52N 49°18' W 122°58'0 0.0
2017-Nov-13 01:31N 49°18' W 122°58'0 0.0
2017-Nov-13 00:43N 49°18' W 122°58'0 0.0
2017-Nov-13 00:19N 49°18' W 122°58'0 0.0
2017-Nov-12 23:55N 49°18' W 122°58'0 0.0
2017-Nov-12 23:25N 49°18' W 122°58'0 0.0
2017-Nov-12 23:01N 49°18' W 122°58'0 0.0
2017-Nov-12 22:25N 49°18' W 122°58'0 0.1
2017-Nov-12 21:58N 49°18' W 122°58'0 0.1
2017-Nov-12 21:25N 49°18' W 122°58'0 0.0
2017-Nov-12 20:55N 49°18' W 122°58'0 0.0
2017-Nov-12 20:19N 49°18' W 122°58'0 0.1
2017-Nov-12 19:58N 49°18' W 122°58'0 0.1
2017-Nov-12 19:28N 49°18' W 122°58'0 0.0
2017-Nov-12 18:55N 49°18' W 122°58'0 0.2
2017-Nov-12 18:28N 49°18' W 122°58'0 0.1
2017-Nov-12 17:46N 49°18' W 122°58'0 0.1
2017-Nov-12 16:46N 49°18' W 122°58'0 0.2
2017-Nov-12 16:28N 49°18' W 122°58'0 0.0
2017-Nov-12 15:58N 49°18' W 122°58'0 0.0
2017-Nov-12 15:19N 49°18' W 122°58'0 0.1
2017-Nov-12 14:55N 49°18' W 122°58'0 0.0
2017-Nov-12 14:25N 49°18' W 122°58'0 0.0
2017-Nov-12 13:49N 49°18' W 122°58'0 0.0
2017-Nov-12 13:28N 49°18' W 122°58'0 0.0
2017-Nov-12 13:01N 49°18' W 122°58'0 0.0
2017-Nov-12 12:19N 49°18' W 122°58'0 0.0
2017-Nov-12 11:55N 49°18' W 122°58'0 0.0
2017-Nov-12 11:22N 49°18' W 122°58'0 0.0
2017-Nov-12 10:55N 49°18' W 122°58'0 0.0
2017-Nov-12 10:25N 49°18' W 122°58'0 0.1
2017-Nov-12 09:58N 49°18' W 122°58'0 0.0
2017-Nov-12 09:31N 49°18' W 122°58'0 0.0
2017-Nov-12 08:55N 49°18' W 122°58'0 0.0
2017-Nov-12 08:19N 49°18' W 122°58'0 0.1
2017-Nov-12 08:01N 49°18' W 122°58'0 0.1
2017-Nov-12 07:28N 49°18' W 122°58'0 0.0
2017-Nov-12 06:49N 49°18' W 122°58'0 0.1
2017-Nov-12 06:28N 49°18' W 122°58'0 0.0
2017-Nov-12 05:49N 49°18' W 122°58'0 0.1
2017-Nov-12 05:28N 49°18' W 122°58'0 0.1
2017-Nov-12 04:49N 49°18' W 122°58'0 0.0
2017-Nov-12 04:19N 49°18' W 122°58'0 0.2
2017-Nov-12 03:55N 49°18' W 122°58'0 0.0
2017-Nov-12 02:40N 49°18' W 122°58'0 0.0
2017-Nov-12 01:52N 49°18' W 122°58'0 0.0
2017-Nov-12 01:25N 49°18' W 122°58'0 0.0
2017-Nov-12 00:55N 49°18' W 122°58'0 0.0
2017-Nov-12 00:31N 49°18' W 122°58'0 0.0
2017-Nov-12 00:01N 49°18' W 122°58'0 0.0
2017-Nov-11 23:25N 49°18' W 122°58'0 0.1
2017-Nov-11 22:55N 49°18' W 122°58'0 0.0
2017-Nov-11 22:28N 49°18' W 122°58'0 0.0
2017-Nov-11 21:58N 49°18' W 122°58'0 0.1
2017-Nov-11 21:30N 49°18' W 122°58'0 0.2
2017-Nov-11 21:00N 49°18' W 122°58'3 5.3
2017-Nov-11 20:30N 49°18' W 123°02'2 4.7
2017-Nov-11 20:00N 49°18' W 123°06'4 8.1
2017-Nov-11 19:30N 49°19' W 123°12'4 8.6
2017-Nov-11 19:00N 49°17' W 123°18'4 7.6
2017-Nov-11 18:30N 49°13' W 123°19'611.5
2017-Nov-11 18:00N 49°08' W 123°20'510.8
2017-Nov-11 17:30N 49°02' W 123°17'612.6
2017-Nov-11 17:00N 48°58' W 123°10'612.6
2017-Nov-11 16:30N 48°54' W 123°04'613.0
2017-Nov-11 16:01N 48°48' W 123°00'714.5
2017-Nov-11 15:30N 48°44' W 123°10'611.6
2017-Nov-11 15:01N 48°39' W 123°14'714.1
2017-Nov-11 14:30N 48°32' W 123°11'713.1
2017-Nov-11 14:01N 48°25' W 123°11'713.6
2017-Nov-11 13:30N 48°22' W 123°20'2 3.5
2017-Nov-11 13:00N 48°20' W 123°21'0 0.4
2017-Nov-11 12:30N 48°21' W 123°21'0 0.0
2017-Nov-11 11:57N 48°21' W 123°21'0 0.0
2017-Nov-11 11:30N 48°21' W 123°21'0 0.0
2017-Nov-11 11:00N 48°21' W 123°21'0 0.0
2017-Nov-11 10:30N 48°21' W 123°21'0 0.0
2017-Nov-11 10:00N 48°21' W 123°21'0 0.1
2017-Nov-11 09:30N 48°21' W 123°21'0 0.0
2017-Nov-11 09:00N 48°21' W 123°21'0 0.0
2017-Nov-11 08:30N 48°21' W 123°21'0 0.0
2017-Nov-11 08:00N 48°21' W 123°21'0 0.0
2017-Nov-11 07:30N 48°21' W 123°21'0 0.0
2017-Nov-11 07:00N 48°21' W 123°21'0 0.0
2017-Nov-11 06:30N 48°21' W 123°21'0 0.1
2017-Nov-11 06:00N 48°21' W 123°21'0 0.0
2017-Nov-11 05:30N 48°21' W 123°21'0 0.0
2017-Nov-11 05:00N 48°21' W 123°21'0 0.1
2017-Nov-11 04:30N 48°21' W 123°21'0 0.0
2017-Nov-11 04:00N 48°21' W 123°21'0 0.0
2017-Nov-11 03:30N 48°21' W 123°21'0 0.0
2017-Nov-11 03:00N 48°21' W 123°21'0 0.1
2017-Nov-11 02:30N 48°21' W 123°21'0 0.0
2017-Nov-11 02:00N 48°21' W 123°21'0 0.0
2017-Nov-11 01:30N 48°21' W 123°21'0 0.0
2017-Nov-11 01:00N 48°21' W 123°21'0 0.1
2017-Nov-11 00:30N 48°21' W 123°21'0 0.1
2017-Nov-11 00:00N 48°21' W 123°21'0 0.0
2017-Nov-10 23:27N 48°21' W 123°21'0 0.1
2017-Nov-10 23:00N 48°21' W 123°21'0 0.0
2017-Nov-10 22:30N 48°21' W 123°21'0 0.1
2017-Nov-10 21:57N 48°21' W 123°21'0 0.0
2017-Nov-10 21:30N 48°21' W 123°21'0 0.0
2017-Nov-10 21:00N 48°21' W 123°21'0 0.1
2017-Nov-10 20:30N 48°21' W 123°21'0 0.3
2017-Nov-10 20:00N 48°21' W 123°21'0 0.2
2017-Nov-10 19:30N 48°21' W 123°21'0 0.0
2017-Nov-10 19:00N 48°21' W 123°21'0 0.0
2017-Nov-10 18:30N 48°21' W 123°21'0 0.6
2017-Nov-10 18:00N 48°21' W 123°20'2 3.1
2017-Nov-10 17:30N 48°20' W 123°22'4 7.9
2017-Nov-10 17:00N 48°17' W 123°25'4 7.7
2017-Nov-10 16:30N 48°14' W 123°29'4 9.1
2017-Nov-10 16:00N 48°14' W 123°36'611.4
2017-Nov-10 15:30N 48°13' W 123°45'814.6
2017-Nov-10 14:59N 48°14' W 123°56'714.5
2017-Nov-10 14:29N 48°17' W 124°06'714.1
2017-Nov-10 14:00N 48°20' W 124°15'1113.5
2017-Nov-10 13:11N 48°24' W 124°30'314.2
2017-Nov-10 12:57N 48°26' W 124°35'613.8
2017-Nov-10 12:30N 48°28' W 124°43'612.6
2017-Nov-10 12:00N 48°29' W 124°53'611.1
2017-Nov-10 11:29N 48°27' W 125°01'612.8
2017-Nov-10 10:59N 48°21' W 125°04'913.1
2017-Nov-10 10:16N 48°13' W 125°09'8613.1
2017-Nov-10 03:40N 46°47' W 125°26'0 0.4
2017-Nov-10 03:16N 46°47' W 125°26'412.8
2017-Nov-10 02:58N 46°43' W 125°26'1112.1
2017-Nov-10 02:02N 46°32' W 125°27'512.4
2017-Nov-10 01:39N 46°27' W 125°27'212.5
2017-Nov-10 01:31N 46°25' W 125°28'612.3
2017-Nov-10 01:00N 46°19' W 125°28'612.4
2017-Nov-10 00:30N 46°13' W 125°29'612.4
2017-Nov-10 00:00N 46°07' W 125°30'612.3
2017-Nov-09 23:30N 46°01' W 125°30'612.1
2017-Nov-09 22:59N 45°54' W 125°31'811.8
2017-Nov-09 22:17N 45°46' W 125°32'411.7
2017-Nov-09 21:59N 45°43' W 125°32'711.7
2017-Nov-09 21:23N 45°36' W 125°32'812.0
2017-Nov-09 20:45N 45°28' W 125°32'  
Track history (hours):
 
Tides and Currents Weather Stations Pressure Air Temp Water Temp Dewpoint Dewpoint Depression Visibility Wind Speed Wind Dir Waves Ship Positions

Oklahoma

Last reported at 2017-Nov-19 04:12 UTC. Time now 2017-Nov-22 13:13 UTC.
Position N 44°23' W 125°11'.

Length 238 m; draft 12.1 m.

Type: Tanker. MMSI: 308664000.

Date/timePositionNaut miles runAvg speedWind from/ knotsBaromVisibWave heightAir tempDewpointWater temp
2017-Nov-19 04:12N 44°23' W 125°11'313.2
2017-Nov-19 03:59N 44°26' W 125°12'813.3
2017-Nov-19 03:24N 44°34' W 125°12'613.2
2017-Nov-19 02:58N 44°40' W 125°12'613.5
2017-Nov-19 02:30N 44°46' W 125°12'713.3
2017-Nov-19 02:01N 44°53' W 125°12'713.3
2017-Nov-19 01:30N 44°59' W 125°13'713.0
2017-Nov-19 01:00N 45°06' W 125°13'713.1
2017-Nov-19 00:28N 45°13' W 125°13'613.3
2017-Nov-19 00:00N 45°19' W 125°14'713.4
2017-Nov-18 23:30N 45°26' W 125°14'713.3
2017-Nov-18 23:00N 45°32' W 125°14'713.5
2017-Nov-18 22:30N 45°39' W 125°14'713.6
2017-Nov-18 22:00N 45°46' W 125°14'713.5
2017-Nov-18 21:30N 45°53' W 125°15'713.4
2017-Nov-18 21:00N 45°59' W 125°15'713.1
2017-Nov-18 20:31N 46°06' W 125°15'713.0
2017-Nov-18 20:00N 46°12' W 125°16'613.1
2017-Nov-18 19:30N 46°19' W 125°16'612.9
2017-Nov-18 19:01N 46°25' W 125°17'613.0
2017-Nov-18 18:31N 46°32' W 125°17'613.0
2017-Nov-18 18:01N 46°38' W 125°17'612.8
2017-Nov-18 17:31N 46°45' W 125°17'612.9
2017-Nov-18 17:00N 46°51' W 125°18'1013.1
2017-Nov-18 16:16N 47°01' W 125°18'7112.9
2017-Nov-18 10:45N 48°12' W 125°13'312.5
2017-Nov-18 10:29N 48°15' W 125°12'612.1
2017-Nov-18 09:57N 48°22' W 125°09'511.5
2017-Nov-18 09:30N 48°26' W 125°06'611.6
2017-Nov-18 09:00N 48°31' W 125°00'611.6
2017-Nov-18 08:31N 48°31' W 124°52'612.0
2017-Nov-18 08:00N 48°30' W 124°43'612.2
2017-Nov-18 07:30N 48°28' W 124°34'712.6
2017-Nov-18 06:57N 48°25' W 124°24'613.9
2017-Nov-18 06:30N 48°23' W 124°16'714.6
2017-Nov-18 06:01N 48°20' W 124°06'714.0
2017-Nov-18 05:30N 48°18' W 123°56'714.0
2017-Nov-18 05:00N 48°16' W 123°46'814.9
2017-Nov-18 04:30N 48°15' W 123°35'612.2
2017-Nov-18 04:00N 48°19' W 123°28'5 9.6
2017-Nov-18 03:30N 48°23' W 123°23'510.6
2017-Nov-18 03:00N 48°23' W 123°15'510.5
2017-Nov-18 02:30N 48°28' W 123°12'612.2
2017-Nov-18 02:00N 48°34' W 123°13'611.7
2017-Nov-18 01:30N 48°40' W 123°15'4 8.4
2017-Nov-18 01:00N 48°43' W 123°11'510.8
2017-Nov-18 00:30N 48°46' W 123°04'4 7.9
2017-Nov-17 23:59N 48°50' W 123°03'511.4
2017-Nov-17 23:30N 48°54' W 123°08'611.5
2017-Nov-17 23:00N 48°58' W 123°15'611.7
2017-Nov-17 22:30N 49°02' W 123°21'510.4
2017-Nov-17 22:00N 49°07' W 123°24'611.8
2017-Nov-17 21:30N 49°12' W 123°22'510.3
2017-Nov-17 21:00N 49°17' W 123°20'510.9
2017-Nov-17 20:30N 49°19' W 123°12'3 5.5
2017-Nov-17 20:00N 49°19' W 123°08'3 6.2
2017-Nov-17 19:30N 49°18' W 123°04'3 6.1
2017-Nov-17 19:00N 49°18' W 122°59'1 1.8
2017-Nov-17 18:30N 49°18' W 122°57'0 0.9
2017-Nov-17 17:59N 49°18' W 122°57'0 0.0
2017-Nov-16 02:03N 49°17' W 122°57'0 0.0
2017-Nov-16 01:51N 49°17' W 122°57'0 0.0
2017-Nov-16 01:21N 49°17' W 122°57'0 0.0
2017-Nov-16 00:57N 49°17' W 122°57'0 0.0
2017-Nov-16 00:27N 49°17' W 122°57'0 0.0
2017-Nov-15 23:57N 49°17' W 122°57'0 0.0
2017-Nov-15 23:09N 49°17' W 122°57'0 0.0
2017-Nov-15 22:51N 49°17' W 122°57'0 0.0
2017-Nov-15 22:27N 49°17' W 122°57'0 0.0
2017-Nov-15 21:57N 49°17' W 122°57'0 0.0
2017-Nov-15 21:21N 49°17' W 122°57'0 0.0
2017-Nov-15 20:45N 49°17' W 122°57'0 0.0
2017-Nov-15 20:27N 49°17' W 122°57'0 0.0
2017-Nov-15 19:21N 49°17' W 122°57'0 0.0
2017-Nov-15 16:21N 49°17' W 122°57'0 0.2
2017-Nov-15 16:00N 49°18' W 122°57'1 1.6
2017-Nov-15 15:30N 49°18' W 122°58'0 0.2
2017-Nov-15 15:00N 49°18' W 122°58'0 0.1
2017-Nov-15 14:19N 49°18' W 122°58'0 0.1
2017-Nov-15 14:01N 49°18' W 122°58'0 0.0
2017-Nov-15 13:13N 49°18' W 122°58'0 0.1
2017-Nov-15 12:43N 49°18' W 122°58'0 0.0
2017-Nov-15 11:43N 49°18' W 122°58'0 0.0
2017-Nov-15 11:25N 49°18' W 122°58'0 0.3
2017-Nov-15 10:49N 49°18' W 122°58'0 0.3
2017-Nov-15 10:19N 49°18' W 122°58'0 0.2
2017-Nov-15 09:58N 49°18' W 122°58'0 0.1
2017-Nov-15 09:13N 49°18' W 122°58'0 0.2
2017-Nov-15 08:55N 49°18' W 122°58'0 0.4
2017-Nov-15 08:28N 49°18' W 122°58'0 0.1
2017-Nov-15 07:31N 49°18' W 122°58'0 0.0
2017-Nov-15 07:19N 49°18' W 122°58'0 0.1
2017-Nov-15 06:55N 49°18' W 122°58'0 0.1
2017-Nov-15 06:16N 49°18' W 122°58'0 0.0
2017-Nov-15 06:01N 49°18' W 122°58'0 0.0
2017-Nov-15 05:07N 49°18' W 122°58'0 0.0
2017-Nov-15 04:49N 49°18' W 122°58'0 0.0
2017-Nov-15 04:25N 49°18' W 122°58'0 0.0
2017-Nov-15 03:43N 49°18' W 122°58'0 0.1
2017-Nov-15 03:25N 49°18' W 122°58'0 0.0
2017-Nov-15 02:55N 49°18' W 122°58'0 0.0
2017-Nov-15 02:25N 49°18' W 122°58'0 0.0
2017-Nov-15 01:55N 49°18' W 122°58'0 0.0
2017-Nov-15 01:19N 49°18' W 122°58'0 0.1
2017-Nov-15 00:55N 49°18' W 122°58'0 0.0
2017-Nov-15 00:25N 49°18' W 122°58'0 0.0
2017-Nov-15 00:01N 49°18' W 122°58'0 0.0
2017-Nov-14 23:25N 49°18' W 122°58'0 0.0
2017-Nov-14 22:55N 49°18' W 122°58'0 0.0
2017-Nov-14 22:19N 49°18' W 122°58'0 0.1
2017-Nov-14 21:43N 49°18' W 122°58'0 0.2
2017-Nov-14 21:28N 49°18' W 122°58'0 0.2
2017-Nov-14 20:25N 49°18' W 122°58'0 0.1
2017-Nov-14 19:55N 49°18' W 122°58'0 0.2
2017-Nov-14 19:31N 49°18' W 122°58'0 0.1
2017-Nov-14 18:19N 49°18' W 122°58'0 0.0
2017-Nov-14 18:01N 49°18' W 122°58'0 0.1
2017-Nov-14 17:25N 49°18' W 122°58'0 0.1
2017-Nov-14 16:58N 49°18' W 122°58'0 0.0
2017-Nov-14 16:25N 49°18' W 122°58'0 0.0
2017-Nov-14 15:49N 49°18' W 122°58'0 0.1
2017-Nov-14 15:28N 49°18' W 122°58'0 0.0
2017-Nov-14 14:55N 49°18' W 122°58'0 0.0
2017-Nov-14 14:28N 49°18' W 122°58'0 0.0
2017-Nov-14 13:58N 49°18' W 122°58'0 0.0
2017-Nov-14 13:28N 49°18' W 122°58'0 0.0
2017-Nov-14 12:55N 49°18' W 122°58'0 0.0
2017-Nov-14 12:25N 49°18' W 122°58'0 0.1
2017-Nov-14 11:37N 49°18' W 122°58'0 0.0
2017-Nov-14 11:31N 49°18' W 122°58'0 0.0
2017-Nov-14 10:58N 49°18' W 122°58'0 0.1
2017-Nov-14 10:13N 49°18' W 122°58'0 0.1
2017-Nov-14 09:55N 49°18' W 122°58'0 0.2
2017-Nov-14 09:25N 49°18' W 122°58'0 0.2
2017-Nov-14 09:01N 49°18' W 122°58'0 0.1
2017-Nov-14 08:31N 49°18' W 122°58'0 0.2
2017-Nov-14 07:55N 49°18' W 122°58'0 0.2
2017-Nov-14 07:25N 49°18' W 122°58'0 0.1
2017-Nov-14 06:52N 49°18' W 122°58'0 0.1
2017-Nov-14 06:31N 49°18' W 122°58'0 0.1
2017-Nov-14 05:49N 49°18' W 122°58'0 0.0
2017-Nov-14 05:25N 49°18' W 122°58'0 0.0
2017-Nov-14 04:58N 49°18' W 122°58'0 0.0
2017-Nov-14 04:25N 49°18' W 122°58'0 0.0
2017-Nov-14 03:55N 49°18' W 122°58'0 0.0
2017-Nov-14 03:25N 49°18' W 122°58'0 0.0
2017-Nov-14 02:55N 49°18' W 122°58'0 0.0
2017-Nov-14 02:13N 49°18' W 122°58'0 0.0
2017-Nov-14 01:55N 49°18' W 122°58'0 0.0
2017-Nov-14 01:28N 49°18' W 122°58'0 0.0
2017-Nov-14 00:55N 49°18' W 122°58'0 0.0
2017-Nov-14 00:22N 49°18' W 122°58'0 0.1
2017-Nov-13 23:58N 49°18' W 122°58'0 0.0
2017-Nov-13 23:25N 49°18' W 122°58'0 0.0
2017-Nov-13 22:58N 49°18' W 122°58'0 0.0
2017-Nov-13 22:19N 49°18' W 122°58'0 0.0
2017-Nov-13 21:55N 49°18' W 122°58'0 0.0
2017-Nov-13 01:52N 49°18' W 122°58'0 0.0
2017-Nov-13 01:31N 49°18' W 122°58'0 0.0
2017-Nov-13 00:43N 49°18' W 122°58'0 0.0
2017-Nov-13 00:19N 49°18' W 122°58'0 0.0
2017-Nov-12 23:55N 49°18' W 122°58'0 0.0
2017-Nov-12 23:25N 49°18' W 122°58'0 0.0
2017-Nov-12 23:01N 49°18' W 122°58'0 0.0
2017-Nov-12 22:25N 49°18' W 122°58'0 0.1
2017-Nov-12 21:58N 49°18' W 122°58'0 0.1
2017-Nov-12 21:25N 49°18' W 122°58'0 0.0
2017-Nov-12 20:55N 49°18' W 122°58'0 0.0
2017-Nov-12 20:19N 49°18' W 122°58'0 0.1
2017-Nov-12 19:58N 49°18' W 122°58'0 0.1
2017-Nov-12 19:28N 49°18' W 122°58'0 0.0
2017-Nov-12 18:55N 49°18' W 122°58'0 0.2
2017-Nov-12 18:28N 49°18' W 122°58'0 0.1
2017-Nov-12 17:46N 49°18' W 122°58'0 0.1
2017-Nov-12 16:46N 49°18' W 122°58'0 0.2
2017-Nov-12 16:28N 49°18' W 122°58'0 0.0
2017-Nov-12 15:58N 49°18' W 122°58'0 0.0
2017-Nov-12 15:19N 49°18' W 122°58'0 0.1
2017-Nov-12 14:55N 49°18' W 122°58'0 0.0
2017-Nov-12 14:25N 49°18' W 122°58'0 0.0
2017-Nov-12 13:49N 49°18' W 122°58'0 0.0
2017-Nov-12 13:28N 49°18' W 122°58'0 0.0
2017-Nov-12 13:01N 49°18' W 122°58'0 0.0
2017-Nov-12 12:19N 49°18' W 122°58'0 0.0
2017-Nov-12 11:55N 49°18' W 122°58'0 0.0
2017-Nov-12 11:22N 49°18' W 122°58'0 0.0
2017-Nov-12 10:55N 49°18' W 122°58'0 0.0
2017-Nov-12 10:25N 49°18' W 122°58'0 0.1
2017-Nov-12 09:58N 49°18' W 122°58'0 0.0
2017-Nov-12 09:31N 49°18' W 122°58'0 0.0
2017-Nov-12 08:55N 49°18' W 122°58'0 0.0
2017-Nov-12 08:19N 49°18' W 122°58'0 0.1
2017-Nov-12 08:01N 49°18' W 122°58'0 0.1
2017-Nov-12 07:28N 49°18' W 122°58'0 0.0
2017-Nov-12 06:49N 49°18' W 122°58'0 0.1
2017-Nov-12 06:28N 49°18' W 122°58'0 0.0
2017-Nov-12 05:49N 49°18' W 122°58'0 0.1
2017-Nov-12 05:28N 49°18' W 122°58'0 0.1
2017-Nov-12 04:49N 49°18' W 122°58'0 0.0
2017-Nov-12 04:19N 49°18' W 122°58'0 0.2
2017-Nov-12 03:55N 49°18' W 122°58'0 0.0
2017-Nov-12 02:40N 49°18' W 122°58'0 0.0
2017-Nov-12 01:52N 49°18' W 122°58'0 0.0
2017-Nov-12 01:25N 49°18' W 122°58'0 0.0
2017-Nov-12 00:55N 49°18' W 122°58'0 0.0
2017-Nov-12 00:31N 49°18' W 122°58'0 0.0
2017-Nov-12 00:01N 49°18' W 122°58'0 0.0
2017-Nov-11 23:25N 49°18' W 122°58'0 0.1
2017-Nov-11 22:55N 49°18' W 122°58'0 0.0
2017-Nov-11 22:28N 49°18' W 122°58'0 0.0
2017-Nov-11 21:58N 49°18' W 122°58'0 0.1
2017-Nov-11 21:30N 49°18' W 122°58'0 0.2
2017-Nov-11 21:00N 49°18' W 122°58'3 5.3
2017-Nov-11 20:30N 49°18' W 123°02'2 4.7
2017-Nov-11 20:00N 49°18' W 123°06'4 8.1
2017-Nov-11 19:30N 49°19' W 123°12'4 8.6
2017-Nov-11 19:00N 49°17' W 123°18'4 7.6
2017-Nov-11 18:30N 49°13' W 123°19'611.5
2017-Nov-11 18:00N 49°08' W 123°20'510.8
2017-Nov-11 17:30N 49°02' W 123°17'612.6
2017-Nov-11 17:00N 48°58' W 123°10'612.6
2017-Nov-11 16:30N 48°54' W 123°04'613.0
2017-Nov-11 16:01N 48°48' W 123°00'714.5
2017-Nov-11 15:30N 48°44' W 123°10'611.6
2017-Nov-11 15:01N 48°39' W 123°14'714.1
2017-Nov-11 14:30N 48°32' W 123°11'713.1
2017-Nov-11 14:01N 48°25' W 123°11'713.6
2017-Nov-11 13:30N 48°22' W 123°20'2 3.5
2017-Nov-11 13:00N 48°20' W 123°21'0 0.4
2017-Nov-11 12:30N 48°21' W 123°21'0 0.0
2017-Nov-11 11:57N 48°21' W 123°21'0 0.0
2017-Nov-11 11:30N 48°21' W 123°21'0 0.0
2017-Nov-11 11:00N 48°21' W 123°21'0 0.0
2017-Nov-11 10:30N 48°21' W 123°21'0 0.0
2017-Nov-11 10:00N 48°21' W 123°21'0 0.1
2017-Nov-11 09:30N 48°21' W 123°21'0 0.0
2017-Nov-11 09:00N 48°21' W 123°21'0 0.0
2017-Nov-11 08:30N 48°21' W 123°21'0 0.0
2017-Nov-11 08:00N 48°21' W 123°21'0 0.0
2017-Nov-11 07:30N 48°21' W 123°21'0 0.0
2017-Nov-11 07:00N 48°21' W 123°21'0 0.0
2017-Nov-11 06:30N 48°21' W 123°21'0 0.1
2017-Nov-11 06:00N 48°21' W 123°21'0 0.0
2017-Nov-11 05:30N 48°21' W 123°21'0 0.0
2017-Nov-11 05:00N 48°21' W 123°21'0 0.1
2017-Nov-11 04:30N 48°21' W 123°21'0 0.0
2017-Nov-11 04:00N 48°21' W 123°21'0 0.0
2017-Nov-11 03:30N 48°21' W 123°21'0 0.0
2017-Nov-11 03:00N 48°21' W 123°21'0 0.1
2017-Nov-11 02:30N 48°21' W 123°21'0 0.0
2017-Nov-11 02:00N 48°21' W 123°21'0 0.0
2017-Nov-11 01:30N 48°21' W 123°21'0 0.0
2017-Nov-11 01:00N 48°21' W 123°21'0 0.1
2017-Nov-11 00:30N 48°21' W 123°21'0 0.1
2017-Nov-11 00:00N 48°21' W 123°21'0 0.0
2017-Nov-10 23:27N 48°21' W 123°21'0 0.1
2017-Nov-10 23:00N 48°21' W 123°21'0 0.0
2017-Nov-10 22:30N 48°21' W 123°21'0 0.1
2017-Nov-10 21:57N 48°21' W 123°21'0 0.0
2017-Nov-10 21:30N 48°21' W 123°21'0 0.0
2017-Nov-10 21:00N 48°21' W 123°21'0 0.1
2017-Nov-10 20:30N 48°21' W 123°21'0 0.3
2017-Nov-10 20:00N 48°21' W 123°21'0 0.2
2017-Nov-10 19:30N 48°21' W 123°21'0 0.0
2017-Nov-10 19:00N 48°21' W 123°21'0 0.0
2017-Nov-10 18:30N 48°21' W 123°21'0 0.6
2017-Nov-10 18:00N 48°21' W 123°20'2 3.1
2017-Nov-10 17:30N 48°20' W 123°22'4 7.9
2017-Nov-10 17:00N 48°17' W 123°25'4 7.7
2017-Nov-10 16:30N 48°14' W 123°29'4 9.1
2017-Nov-10 16:00N 48°14' W 123°36'611.4
2017-Nov-10 15:30N 48°13' W 123°45'814.6
2017-Nov-10 14:59N 48°14' W 123°56'714.5
2017-Nov-10 14:29N 48°17' W 124°06'714.1
2017-Nov-10 14:00N 48°20' W 124°15'1113.5
2017-Nov-10 13:11N 48°24' W 124°30'314.2
2017-Nov-10 12:57N 48°26' W 124°35'613.8
2017-Nov-10 12:30N 48°28' W 124°43'612.6
2017-Nov-10 12:00N 48°29' W 124°53'611.1
2017-Nov-10 11:29N 48°27' W 125°01'612.8
2017-Nov-10 10:59N 48°21' W 125°04'913.1
2017-Nov-10 10:16N 48°13' W 125°09'8613.1
2017-Nov-10 03:40N 46°47' W 125°26'0 0.4
2017-Nov-10 03:16N 46°47' W 125°26'412.8
2017-Nov-10 02:58N 46°43' W 125°26'1112.1
2017-Nov-10 02:02N 46°32' W 125°27'512.4
2017-Nov-10 01:39N 46°27' W 125°27'212.5
2017-Nov-10 01:31N 46°25' W 125°28'612.3
2017-Nov-10 01:00N 46°19' W 125°28'612.4
2017-Nov-10 00:30N 46°13' W 125°29'612.4
2017-Nov-10 00:00N 46°07' W 125°30'612.3
2017-Nov-09 23:30N 46°01' W 125°30'612.1
2017-Nov-09 22:59N 45°54' W 125°31'811.8
2017-Nov-09 22:17N 45°46' W 125°32'411.7
2017-Nov-09 21:59N 45°43' W 125°32'711.7
2017-Nov-09 21:23N 45°36' W 125°32'812.0
2017-Nov-09 20:45N 45°28' W 125°32'  

Dump ship's entire track history